createdAt,value
2018-06-05T00:02:14.879Z,74105.77
2018-06-05T00:04:44.405Z,74101.73
2018-06-05T00:07:14.134Z,74099.70
2018-06-05T00:09:43.824Z,74099.70
2018-06-05T00:12:13.365Z,74094.64
2018-06-05T00:14:43.308Z,74086.55
2018-06-05T00:17:13.000Z,74096.67
2018-06-05T00:19:42.733Z,74086.55
2018-06-05T00:22:12.126Z,74113.87
2018-06-05T00:24:41.789Z,74132.08
2018-06-05T00:27:11.360Z,74128.03
2018-06-05T00:29:41.382Z,74131.07
2018-06-05T00:32:10.901Z,74135.12
2018-06-05T00:34:40.677Z,74141.19
2018-06-05T00:37:10.541Z,74147.26
2018-06-05T00:39:40.012Z,74153.33
2018-06-05T00:42:09.639Z,74156.36
2018-06-05T00:44:39.537Z,74157.38
2018-06-05T00:47:09.022Z,74158.39
2018-06-05T00:49:38.432Z,74159.40
2018-06-05T00:52:09.910Z,74166.48
2018-06-05T00:54:39.550Z,74165.47
2018-06-05T00:57:08.989Z,74172.55
2018-06-05T00:59:38.456Z,74188.74
2018-06-05T01:02:07.968Z,74189.75
2018-06-05T01:04:38.095Z,74197.84
2018-06-05T01:07:07.759Z,74190.77
2018-06-05T01:09:37.313Z,74193.80
2018-06-05T01:12:10.011Z,74170.53
2018-06-05T01:14:40.176Z,74157.38
2018-06-05T01:17:10.825Z,74189.75
2018-06-05T01:19:40.629Z,74186.72
2018-06-05T01:22:10.524Z,74182.67
2018-06-05T01:24:40.104Z,74197.84
2018-06-05T01:27:14.093Z,74204.93
2018-06-05T01:29:43.729Z,74217.08
2018-06-05T01:32:13.291Z,74223.14
2018-06-05T01:34:43.500Z,74201.89
2018-06-05T01:37:13.240Z,74201.89
2018-06-05T01:39:42.777Z,74188.74
2018-06-05T01:42:12.625Z,74165.47
2018-06-05T01:44:42.448Z,74175.59
2018-06-05T01:47:12.092Z,74214.03
2018-06-05T01:49:42.212Z,74195.83
2018-06-05T01:52:12.978Z,74197.84
2018-06-05T01:54:44.784Z,74226.18
2018-06-05T01:57:16.547Z,74213.02
2018-06-05T01:59:46.099Z,74262.60
2018-06-05T02:02:15.618Z,74270.70
2018-06-05T02:04:45.679Z,74279.80
2018-06-05T02:07:15.402Z,74283.86
2018-06-05T02:09:44.887Z,74290.94
2018-06-05T02:12:14.871Z,74299.03
2018-06-05T02:14:44.407Z,74317.24
2018-06-05T02:17:13.968Z,74332.42
2018-06-05T02:19:43.983Z,74343.55
2018-06-05T02:22:13.478Z,74346.59
2018-06-05T02:24:43.008Z,74349.63
2018-06-05T02:27:12.707Z,74354.69
2018-06-05T02:29:42.284Z,74357.72
2018-06-05T02:32:11.796Z,74361.77
2018-06-05T02:34:41.685Z,74364.80
2018-06-05T02:37:11.392Z,74369.86
2018-06-05T02:39:40.987Z,74358.73
2018-06-05T02:42:11.009Z,74375.93
2018-06-05T02:44:40.562Z,74342.54
2018-06-05T02:47:10.270Z,74311.17
2018-06-05T02:49:40.340Z,74283.86
2018-06-05T02:52:10.044Z,74261.59
2018-06-05T02:54:39.599Z,74316.23
2018-06-05T02:57:09.516Z,74335.45
2018-06-05T02:59:39.177Z,74305.10
2018-06-05T03:02:08.977Z,74352.66
2018-06-05T03:04:39.030Z,74327.36
2018-06-05T03:07:09.029Z,74363.79
2018-06-05T03:09:38.750Z,74360.75
2018-06-05T03:12:08.796Z,74359.73
2018-06-05T03:14:38.628Z,74361.77
2018-06-05T03:17:08.197Z,74347.59
2018-06-05T03:19:38.010Z,74361.77
2018-06-05T03:22:07.574Z,74358.73
2018-06-05T03:24:37.303Z,74323.31
2018-06-05T03:27:07.448Z,74333.44
2018-06-05T03:29:37.106Z,74339.50
2018-06-05T03:32:06.667Z,74320.28
2018-06-05T03:34:36.203Z,74334.45
2018-06-05T03:37:05.764Z,74336.47
2018-06-05T03:39:35.330Z,74333.44
2018-06-05T03:42:04.596Z,74347.59
2018-06-05T03:44:33.858Z,74344.56
2018-06-05T03:47:03.554Z,74303.08
2018-06-05T03:49:38.019Z,74290.94
2018-06-05T03:52:07.386Z,74320.28
2018-06-05T03:54:37.189Z,74327.36
2018-06-05T03:57:06.897Z,74321.29
2018-06-05T03:59:36.540Z,74327.36
2018-06-05T04:02:05.969Z,74334.45
2018-06-05T04:04:35.432Z,74330.39
2018-06-05T04:07:05.834Z,74331.41
2018-06-05T04:09:35.083Z,74325.34
2018-06-05T04:12:04.325Z,74349.63
2018-06-05T04:14:33.902Z,74334.45
2018-06-05T04:17:03.538Z,74343.55
2018-06-05T04:19:33.080Z,74349.63
2018-06-05T04:22:02.977Z,74368.84
2018-06-05T04:24:32.408Z,74359.73
2018-06-05T04:27:02.090Z,74312.19
2018-06-05T04:29:31.504Z,74323.31
2018-06-05T04:32:00.938Z,74331.41
2018-06-05T04:34:30.536Z,74324.33
2018-06-05T04:37:00.104Z,74344.56
2018-06-05T04:39:30.192Z,74259.57
2018-06-05T04:42:04.536Z,74308.14
2018-06-05T04:44:34.507Z,74273.73
2018-06-05T04:47:07.868Z,74214.03
2018-06-05T04:49:38.139Z,74261.59
2018-06-05T04:52:10.110Z,74227.19
2018-06-05T04:54:39.527Z,74310.16
2018-06-05T04:57:10.778Z,74245.41
2018-06-05T04:59:40.287Z,74194.81
2018-06-05T05:02:09.587Z,74194.81
2018-06-05T05:04:39.602Z,74262.60
2018-06-05T05:07:09.423Z,74211.00
2018-06-05T05:09:39.032Z,74249.45
2018-06-05T05:12:08.733Z,74181.66
2018-06-05T05:14:37.989Z,74193.80
2018-06-05T05:17:09.140Z,74250.46
2018-06-05T05:19:39.223Z,74305.10
2018-06-05T05:22:08.892Z,74231.23
2018-06-05T05:24:38.203Z,74276.77
2018-06-05T05:27:08.518Z,74307.13
2018-06-05T05:29:40.736Z,74347.59
2018-06-05T05:32:12.101Z,74273.73
2018-06-05T05:34:42.152Z,74264.63
2018-06-05T05:37:11.864Z,74270.70
2018-06-05T05:39:41.931Z,74251.47
2018-06-05T05:42:11.796Z,74307.13
2018-06-05T05:44:42.191Z,74314.20
2018-06-05T05:47:12.156Z,74324.33
2018-06-05T05:49:41.468Z,74292.95
2018-06-05T05:52:10.773Z,74297.01
2018-06-05T05:54:40.449Z,74330.39
2018-06-05T05:57:10.097Z,74358.73
2018-06-05T05:59:39.777Z,74330.39
2018-06-05T06:02:09.815Z,74326.35
2018-06-05T06:04:39.175Z,74311.17
2018-06-05T06:07:08.540Z,74365.81
2018-06-05T06:09:38.320Z,74361.77
2018-06-05T06:12:08.031Z,74360.75
2018-06-05T06:14:37.310Z,74332.42
2018-06-05T06:17:07.132Z,74325.34
2018-06-05T06:19:36.615Z,74340.52
2018-06-05T06:22:06.279Z,74348.61
2018-06-05T06:24:36.215Z,74377.95
2018-06-05T06:27:05.529Z,74375.93
2018-06-05T06:29:35.136Z,74376.94
2018-06-05T06:32:04.696Z,74310.16
2018-06-05T06:34:34.051Z,74322.30
2018-06-05T06:37:03.728Z,74377.95
2018-06-05T06:39:33.364Z,74370.88
2018-06-05T06:42:03.093Z,74365.81
2018-06-05T06:44:33.060Z,74339.50
2018-06-05T06:47:02.640Z,74343.55
2018-06-05T06:49:31.958Z,74262.60
2018-06-05T06:52:01.221Z,74339.50
2018-06-05T06:54:30.782Z,74277.78
2018-06-05T06:57:00.434Z,74340.52
2018-06-05T06:59:30.556Z,74270.70
2018-06-05T07:02:00.176Z,74230.23
2018-06-05T07:04:29.943Z,74247.42
2018-06-05T07:06:59.214Z,74220.11
2018-06-05T07:09:28.779Z,74262.60
2018-06-05T07:11:58.019Z,74296.00
2018-06-05T07:14:27.561Z,74310.16
2018-06-05T07:16:57.099Z,74328.38
2018-06-05T07:19:27.426Z,74330.39
2018-06-05T07:21:56.879Z,74314.20
2018-06-05T07:24:26.658Z,74383.02
2018-06-05T07:26:55.935Z,74330.39
2018-06-05T07:29:25.459Z,74394.14
2018-06-05T07:31:54.958Z,74361.77
2018-06-05T07:34:24.670Z,74276.77
2018-06-05T07:36:53.966Z,74347.59
2018-06-05T07:39:23.336Z,74362.78
2018-06-05T07:41:52.901Z,74365.81
2018-06-05T07:44:22.533Z,74371.88
2018-06-05T07:46:52.297Z,74350.63
2018-06-05T07:49:22.227Z,74347.59
2018-06-05T07:51:51.980Z,74334.45
2018-06-05T07:54:22.055Z,74298.02
2018-06-05T07:56:51.596Z,74311.17
2018-06-05T07:59:21.093Z,74368.84
2018-06-05T08:01:50.371Z,74410.34
2018-06-05T08:04:19.944Z,74398.19
2018-06-05T08:06:49.608Z,74367.84
2018-06-05T08:09:19.614Z,74399.20
2018-06-05T08:11:48.888Z,74369.86
2018-06-05T08:14:18.342Z,74417.42
2018-06-05T08:16:51.371Z,74353.67
2018-06-05T08:19:20.979Z,74386.05
2018-06-05T08:21:50.491Z,74414.38
2018-06-05T08:24:20.705Z,74389.08
2018-06-05T08:26:52.503Z,74394.14
2018-06-05T08:29:22.372Z,74352.66
2018-06-05T08:31:52.431Z,74360.75
2018-06-05T08:34:21.886Z,74342.54
2018-06-05T08:36:51.384Z,74359.73
2018-06-05T08:39:20.955Z,74368.84
2018-06-05T08:41:50.364Z,74353.67
2018-06-05T08:44:19.866Z,74336.47
2018-06-05T08:46:49.897Z,74319.27
2018-06-05T08:49:19.394Z,74320.28
2018-06-05T08:51:48.871Z,74371.88
2018-06-05T08:54:19.082Z,74324.33
2018-06-05T08:56:48.589Z,74331.41
2018-06-05T08:59:17.823Z,74279.80
2018-06-05T09:01:47.179Z,74319.27
2018-06-05T09:04:16.427Z,74253.50
2018-06-05T09:06:45.752Z,74289.92
2018-06-05T09:09:15.543Z,74266.66
2018-06-05T09:11:45.090Z,74225.16
2018-06-05T09:14:14.439Z,74298.02
2018-06-05T09:16:44.064Z,74331.41
2018-06-05T09:19:13.817Z,74280.81
2018-06-05T09:21:47.554Z,74268.67
2018-06-05T09:24:17.900Z,74164.45
2018-06-05T09:26:48.388Z,74095.66
2018-06-05T09:29:19.084Z,74176.59
2018-06-05T09:31:49.164Z,74178.63
2018-06-05T09:34:18.721Z,74193.80
2018-06-05T09:36:48.399Z,74215.05
2018-06-05T09:39:18.774Z,74029.89
2018-06-05T09:41:48.336Z,73930.74
2018-06-05T09:44:18.041Z,73910.51
2018-06-05T09:46:53.821Z,73871.05
2018-06-05T09:49:23.235Z,73774.94
2018-06-05T09:51:54.918Z,73770.89
2018-06-05T09:54:29.828Z,73755.72
2018-06-05T09:57:00.366Z,73963.12
2018-06-05T09:59:33.408Z,73980.31
2018-06-05T10:02:07.084Z,74144.22
2018-06-05T10:04:38.238Z,73915.56
2018-06-05T10:07:07.676Z,74040.01
2018-06-05T10:09:42.436Z,73929.73
2018-06-05T10:12:13.104Z,73954.02
2018-06-05T10:14:44.998Z,73881.17
2018-06-05T10:17:16.351Z,73985.38
2018-06-05T10:19:49.016Z,74004.59
2018-06-05T10:22:18.767Z,73786.06
2018-06-05T10:24:48.584Z,73933.78
2018-06-05T10:27:18.188Z,74040.01
2018-06-05T10:29:47.800Z,73872.06
2018-06-05T10:32:17.983Z,73852.84
2018-06-05T10:34:47.569Z,73764.83
2018-06-05T10:37:19.146Z,73863.97
2018-06-05T10:39:48.471Z,73905.45
2018-06-05T10:42:18.592Z,73909.50
2018-06-05T10:44:48.558Z,73904.44
2018-06-05T10:47:18.211Z,73817.43
2018-06-05T10:49:47.718Z,73896.34
2018-06-05T10:52:21.711Z,73806.30
2018-06-05T10:54:55.469Z,73753.70
2018-06-05T10:57:26.423Z,73805.29
2018-06-05T10:59:56.114Z,73827.55
2018-06-05T11:02:25.707Z,73923.66
2018-06-05T11:04:59.256Z,73954.02
2018-06-05T11:07:29.269Z,73923.66
2018-06-05T11:10:02.610Z,73781.02
2018-06-05T11:12:32.722Z,73904.44
2018-06-05T11:15:02.221Z,73881.17
2018-06-05T11:17:38.452Z,73889.27
2018-06-05T11:20:07.854Z,73802.25
2018-06-05T11:25:22.480Z,73803.27
2018-06-05T11:27:58.155Z,73895.33
2018-06-05T11:30:29.016Z,73874.09
2018-06-05T11:33:10.426Z,73812.38
2018-06-05T11:35:54.706Z,73862.95
2018-06-05T11:38:29.874Z,73856.89
2018-06-05T11:41:05.916Z,73911.52
2018-06-05T11:43:36.576Z,73863.97
2018-06-05T11:46:07.471Z,73882.18
2018-06-05T11:48:37.341Z,73904.44
2018-06-05T11:51:07.685Z,73797.20
2018-06-05T11:53:37.560Z,73605.99
2018-06-05T11:56:07.616Z,73457.28
2018-06-05T11:58:36.952Z,73572.61
2018-06-05T12:01:06.571Z,73695.02
2018-06-05T12:03:36.451Z,73676.81
2018-06-05T12:06:05.870Z,73584.75
2018-06-05T12:08:35.707Z,73709.18
2018-06-05T12:11:05.037Z,73536.19
2018-06-05T12:13:34.611Z,73633.30
2018-06-05T12:16:04.131Z,73614.09
2018-06-05T12:18:33.534Z,73649.49
2018-06-05T12:21:03.255Z,73587.78
2018-06-05T12:23:32.708Z,73451.22
2018-06-05T12:26:02.255Z,73277.23
2018-06-05T12:28:31.727Z,73362.20
2018-06-05T12:31:01.127Z,73459.31
2018-06-05T12:33:33.317Z,73427.95
2018-06-05T12:36:03.404Z,73312.63
2018-06-05T12:38:33.327Z,73434.02
2018-06-05T12:41:02.892Z,73337.92
2018-06-05T12:43:33.081Z,73672.76
2018-06-05T12:46:02.445Z,73623.19
2018-06-05T12:48:31.992Z,73476.50
2018-06-05T12:51:01.523Z,73478.53
2018-06-05T12:53:31.055Z,73433.01
2018-06-05T12:56:00.636Z,73474.48
2018-06-05T12:58:30.535Z,73495.73
2018-06-05T13:01:00.334Z,73345.00
2018-06-05T13:03:31.253Z,73624.20
2018-06-05T13:06:00.957Z,73306.56
2018-06-05T13:08:31.407Z,73221.59
2018-06-05T13:11:01.500Z,73250.93
2018-06-05T13:13:32.547Z,73409.74
2018-06-05T13:16:02.179Z,73346.02
2018-06-05T13:18:32.437Z,73196.30
2018-06-05T13:21:02.769Z,73357.14
2018-06-05T13:23:32.222Z,73210.47
2018-06-05T13:26:01.707Z,73329.83
2018-06-05T13:28:31.623Z,73281.27
2018-06-05T13:31:00.971Z,73335.89
2018-06-05T13:33:31.409Z,73534.17
2018-06-05T13:36:01.218Z,73464.37
2018-06-05T13:38:32.392Z,73388.50
2018-06-05T13:41:02.059Z,73245.88
2018-06-05T13:43:31.609Z,73427.95
2018-06-05T13:46:01.451Z,73485.61
2018-06-05T13:48:30.783Z,73362.20
2018-06-05T13:51:00.193Z,73436.05
2018-06-05T13:53:30.090Z,73448.18
2018-06-05T13:55:59.474Z,73356.13
2018-06-05T13:58:29.008Z,73449.19
2018-06-05T14:01:04.361Z,73474.48
2018-06-05T14:03:34.107Z,73372.31
2018-06-05T14:06:08.242Z,73508.88
2018-06-05T14:08:37.936Z,73348.03
2018-06-05T14:11:07.485Z,73356.13
2018-06-05T14:13:37.466Z,73335.89
2018-06-05T14:16:10.009Z,73455.27
2018-06-05T14:18:39.628Z,73485.61
2018-06-05T14:21:09.620Z,73534.17
2018-06-05T14:23:39.325Z,73355.11
2018-06-05T14:26:08.736Z,73301.50
2018-06-05T14:28:38.563Z,73313.64
2018-06-05T14:31:07.966Z,73251.94
2018-06-05T14:33:37.726Z,73209.45
2018-06-05T14:36:07.130Z,73110.33
2018-06-05T14:38:36.753Z,73333.88
2018-06-05T14:41:06.971Z,73244.86
2018-06-05T14:43:36.479Z,73202.38
2018-06-05T14:46:05.913Z,73332.86
2018-06-05T14:48:35.981Z,73217.55
2018-06-05T14:51:05.490Z,73171.02
2018-06-05T14:53:34.984Z,73101.22
2018-06-05T14:56:05.046Z,73334.88
2018-06-05T14:58:34.934Z,73231.71
2018-06-05T15:01:04.734Z,73314.66
2018-06-05T15:03:34.667Z,73257.00
2018-06-05T15:06:04.184Z,73449.19
2018-06-05T15:08:33.555Z,73309.59
2018-06-05T15:11:03.530Z,73245.88
2018-06-05T15:13:32.938Z,73247.89
2018-06-05T15:16:02.911Z,73130.56
2018-06-05T15:18:33.960Z,73104.27
2018-06-05T15:21:03.570Z,73086.05
2018-06-05T15:23:33.710Z,73076.95
2018-06-05T15:26:05.173Z,73143.70
2018-06-05T15:28:38.067Z,73120.44
2018-06-05T15:31:07.792Z,73037.50
2018-06-05T15:33:39.598Z,73124.48
2018-06-05T15:36:09.940Z,73094.14
2018-06-05T15:38:41.720Z,73176.08
2018-06-05T15:41:11.620Z,73201.36
2018-06-05T15:43:45.079Z,73171.02
2018-06-05T15:46:14.796Z,73174.05
2018-06-05T15:48:44.995Z,73141.69
2018-06-05T15:51:16.757Z,73126.52
2018-06-05T15:53:47.933Z,73088.08
2018-06-05T15:56:20.306Z,73068.86
2018-06-05T15:58:49.753Z,73121.45
2018-06-05T16:01:20.122Z,73252.95
2018-06-05T16:03:53.351Z,73142.70
2018-06-05T16:06:27.207Z,73145.73
2018-06-05T16:08:59.478Z,73138.65
2018-06-05T16:11:31.987Z,73124.48
2018-06-05T16:14:03.079Z,73126.52
2018-06-05T16:16:33.633Z,73105.27
2018-06-05T16:19:06.495Z,73099.20
2018-06-05T16:21:36.608Z,73102.23
2018-06-05T16:24:07.893Z,73136.63
2018-06-05T16:26:40.469Z,73302.52
2018-06-05T16:29:13.447Z,73218.56
2018-06-05T16:31:43.819Z,73247.89
2018-06-05T16:34:15.412Z,73176.08
2018-06-05T16:36:47.813Z,73152.81
2018-06-05T16:39:19.745Z,73157.87
2018-06-05T16:41:53.246Z,73172.03
2018-06-05T16:44:26.570Z,73248.91
2018-06-05T16:46:57.623Z,73199.34
2018-06-05T16:49:29.609Z,73313.64
2018-06-05T16:51:59.905Z,73235.75
2018-06-05T16:54:29.628Z,73257.00
2018-06-05T16:57:00.908Z,73266.10
2018-06-05T16:59:31.202Z,73266.10
2018-06-05T17:02:02.536Z,73253.96
2018-06-05T17:04:35.309Z,73232.72
2018-06-05T17:07:05.707Z,73231.71
2018-06-05T17:09:37.345Z,73354.11
2018-06-05T17:12:07.117Z,73300.49
2018-06-05T17:14:36.503Z,73241.83
2018-06-05T17:17:06.311Z,73258.01
2018-06-05T17:19:35.996Z,73234.74
2018-06-05T17:22:05.856Z,73240.81
2018-06-05T17:24:39.040Z,73206.42
2018-06-05T17:27:09.197Z,73254.97
2018-06-05T17:29:41.138Z,73237.78
2018-06-05T17:32:11.048Z,73252.95
2018-06-05T17:34:41.598Z,73263.06
2018-06-05T17:37:12.527Z,73287.34
2018-06-05T17:39:43.619Z,73268.13
2018-06-05T17:42:15.073Z,73326.80
2018-06-05T17:44:44.852Z,73355.11
2018-06-05T17:47:15.319Z,73317.69
2018-06-05T17:49:44.931Z,73318.70
2018-06-05T17:52:15.979Z,73342.98
2018-06-05T17:54:45.350Z,73351.07
2018-06-05T17:57:15.264Z,73309.59
2018-06-05T17:59:45.130Z,73300.49
2018-06-05T18:02:14.613Z,73307.58
2018-06-05T18:04:44.216Z,73346.02
2018-06-05T18:07:14.937Z,73345.00
2018-06-05T18:09:44.695Z,73357.14
2018-06-05T18:12:14.944Z,73346.02
2018-06-05T18:14:45.634Z,73401.65
2018-06-05T18:17:16.084Z,73403.67
2018-06-05T18:19:45.550Z,73404.69
2018-06-05T18:22:16.801Z,73419.86
2018-06-05T18:24:46.937Z,73432.00
2018-06-05T18:27:16.986Z,73460.32
2018-06-05T18:29:49.068Z,73504.83
2018-06-05T18:32:21.747Z,73479.54
2018-06-05T18:34:51.504Z,73582.72
2018-06-05T18:37:22.613Z,73529.11
2018-06-05T18:39:52.073Z,73637.36
2018-06-05T18:42:21.772Z,73588.80
2018-06-05T18:44:51.521Z,73661.63
2018-06-05T18:47:21.125Z,73683.89
2018-06-05T18:49:50.940Z,73682.88
2018-06-05T18:52:21.514Z,73676.81
2018-06-05T18:54:51.021Z,73696.03
2018-06-05T18:57:21.395Z,73743.58
2018-06-05T18:59:50.827Z,73700.08
2018-06-05T19:02:20.778Z,73730.42
2018-06-05T19:04:50.655Z,73728.41
2018-06-05T19:07:20.818Z,73730.42
2018-06-05T19:09:50.381Z,73732.45
2018-06-05T19:12:23.036Z,73715.25
2018-06-05T19:14:54.371Z,73802.25
2018-06-05T19:17:27.648Z,73765.83
2018-06-05T19:19:57.584Z,73756.73
2018-06-05T19:22:27.833Z,73750.66
2018-06-05T19:24:58.359Z,73788.09
2018-06-05T19:27:27.941Z,73751.67
2018-06-05T19:29:59.583Z,73750.66
2018-06-05T19:32:30.271Z,73759.77
2018-06-05T19:35:00.127Z,73760.77
2018-06-05T19:37:29.781Z,73767.86
2018-06-05T19:40:00.418Z,73761.79
2018-06-05T19:42:31.779Z,73776.96
2018-06-05T19:45:01.459Z,73783.03
2018-06-05T19:47:32.241Z,73787.08
2018-06-05T19:50:02.328Z,73782.02
2018-06-05T19:52:32.451Z,73795.17
2018-06-05T19:55:04.735Z,73810.34
2018-06-05T19:57:35.573Z,73850.81
2018-06-05T20:00:06.837Z,73845.76
2018-06-05T20:02:38.456Z,73846.77
2018-06-05T20:05:08.927Z,73858.91
2018-06-05T20:07:38.523Z,73846.77
2018-06-05T20:10:09.875Z,73869.03
2018-06-05T20:12:41.461Z,73883.19
2018-06-05T20:15:11.958Z,73887.23
2018-06-05T20:17:43.546Z,73890.27
2018-06-05T20:20:14.744Z,73916.58
2018-06-05T20:22:50.147Z,73941.88
2018-06-05T20:25:22.725Z,73958.06
2018-06-05T20:27:54.056Z,73968.17
2018-06-05T20:30:26.170Z,73950.98
2018-06-05T20:32:57.458Z,73977.28
2018-06-05T20:35:29.716Z,73981.33
2018-06-05T20:38:04.038Z,73970.20
2018-06-05T20:40:34.492Z,73993.47
2018-06-05T20:43:08.910Z,74025.84
2018-06-05T20:45:40.854Z,74052.16
2018-06-05T20:48:12.333Z,74041.02
2018-06-05T20:50:43.953Z,74067.33
2018-06-05T20:53:14.966Z,74110.84
2018-06-05T20:55:44.875Z,74209.98
2018-06-05T20:58:15.038Z,74252.48
2018-06-05T21:00:45.000Z,74236.30
2018-06-05T21:03:14.557Z,74185.70
2018-06-05T21:05:45.585Z,74141.19
2018-06-05T21:08:15.251Z,74174.58
2018-06-05T21:10:44.763Z,74220.11
2018-06-05T21:13:14.749Z,74203.92
2018-06-05T21:15:45.626Z,74205.94
2018-06-05T21:18:15.791Z,74274.75
2018-06-05T21:20:45.576Z,74292.95
2018-06-05T21:23:15.556Z,74310.16
2018-06-05T21:25:44.872Z,74268.67
2018-06-05T21:28:14.428Z,74216.06
2018-06-05T21:30:44.291Z,74182.67
2018-06-05T21:33:13.573Z,74175.59
2018-06-05T21:35:44.012Z,74171.55
2018-06-05T21:38:14.566Z,74193.80
2018-06-05T21:40:45.354Z,74183.69
2018-06-05T21:43:17.903Z,74172.55
2018-06-05T21:45:49.860Z,74180.65
2018-06-05T21:48:21.264Z,74176.59
2018-06-05T21:50:55.370Z,74153.33
2018-06-05T21:53:28.317Z,74167.49
2018-06-05T21:56:01.476Z,74184.70
2018-06-05T21:58:32.906Z,74206.95
2018-06-05T22:01:04.527Z,74225.16
2018-06-05T22:03:36.429Z,74227.19
2018-06-05T22:06:06.592Z,74284.87
2018-06-05T22:08:36.341Z,74252.48
2018-06-05T22:11:06.500Z,74253.50
2018-06-05T22:13:36.016Z,74277.78
2018-06-05T22:16:06.638Z,74259.57
2018-06-05T22:18:40.781Z,74270.70
2018-06-05T22:21:11.476Z,74330.39
2018-06-05T22:23:42.917Z,74359.73
2018-06-05T22:26:13.219Z,74457.89
2018-06-05T22:28:44.123Z,74524.67
2018-06-05T22:31:14.759Z,74513.55
2018-06-05T22:33:45.196Z,74460.93
2018-06-05T22:36:15.034Z,74405.27
2018-06-05T22:38:45.139Z,74487.23
2018-06-05T22:41:15.085Z,74545.93
2018-06-05T22:43:44.708Z,74565.16
2018-06-05T22:46:18.592Z,74573.25
2018-06-05T22:48:48.646Z,74564.14
2018-06-05T22:51:22.239Z,74594.50
2018-06-05T22:53:52.598Z,74599.56
2018-06-05T22:56:22.736Z,74613.73
2018-06-05T22:58:52.239Z,74639.02
2018-06-05T23:01:22.098Z,74633.97
2018-06-05T23:03:51.651Z,74643.08
2018-06-05T23:06:21.010Z,74648.13
2018-06-05T23:08:51.676Z,74660.27
2018-06-05T23:11:21.320Z,74651.16
2018-06-05T23:13:50.694Z,74640.03
2018-06-05T23:16:21.116Z,74598.55
2018-06-05T23:18:50.399Z,74592.47
2018-06-05T23:21:19.797Z,74606.64
2018-06-05T23:23:49.402Z,74619.80
2018-06-05T23:26:18.953Z,74630.92
2018-06-05T23:28:48.868Z,74614.73
2018-06-05T23:31:18.519Z,74615.75
2018-06-05T23:33:48.263Z,74625.88
2018-06-05T23:36:18.207Z,74631.94
2018-06-05T23:38:48.173Z,74642.06
2018-06-05T23:41:17.594Z,74619.80
2018-06-05T23:43:46.878Z,74649.14
2018-06-05T23:46:17.846Z,74651.16
2018-06-05T23:48:47.459Z,74657.23
2018-06-05T23:51:17.947Z,74658.25
2018-06-05T23:53:47.376Z,74638.02
2018-06-05T23:56:17.138Z,74656.23
2018-06-05T23:58:46.759Z,74684.56
